Time;durP1;ratioP1;P1;durP2;ratioP2;P2;SDS_P1;SDS_P2;PMS_P1;PMS_P2;Temp;Humidity;BMP_temperature;BMP_pressure;BME280_temperature;BME280_humidity;BME280_pressure;Samples;Min_cycle;Max_cycle;Signal;HPM_P1;HPM_P2
2023/08/28 00:01:37;;;;;;;1.03;1.03;;;;;;;16.10;60.54;100761.66;4967858;28;98533;-60
2023/08/28 00:04:02;;;;;;;1.20;1.10;;;;;;;16.14;60.62;100773.19;4969444;28;97292;-60
2023/08/28 00:06:27;;;;;;;1.63;1.10;;;;;;;16.17;60.68;100772.16;4969702;28;98630;-61
2023/08/28 00:08:53;;;;;;;2.13;1.33;;;;;;;16.17;60.60;100752.72;4966298;28;97180;-60
2023/08/28 00:11:18;;;;;;;1.10;1.00;;;;;;;16.20;60.76;100764.78;4966142;28;97622;-62
2023/08/28 00:13:43;;;;;;;0.97;0.97;;;;;;;16.19;60.79;100764.03;4967278;28;106943;-62
2023/08/28 00:16:09;;;;;;;1.10;1.10;;;;;;;16.22;60.69;100759.47;4972798;28;97335;-62
2023/08/28 00:18:34;;;;;;;1.10;1.00;;;;;;;16.19;60.60;100764.03;4969422;28;97002;-61
2023/08/28 00:21:01;;;;;;;1.43;1.07;;;;;;;16.19;60.76;100782.72;4969960;28;96943;-63
2023/08/28 00:23:26;;;;;;;2.70;1.10;;;;;;;16.19;60.80;100774.38;4968554;28;97123;-61
2023/08/28 00:25:51;;;;;;;1.53;1.40;;;;;;;16.20;60.90;100773.88;4970331;28;97225;-62
2023/08/28 00:28:17;;;;;;;1.50;1.40;;;;;;;16.24;60.83;100762.44;4966569;28;97908;-61
2023/08/28 00:30:42;;;;;;;8.30;1.50;;;;;;;16.21;60.74;100755.94;4969867;28;97416;-62
2023/08/28 00:33:08;;;;;;;1.00;0.97;;;;;;;16.19;60.72;100747.38;4966248;28;97170;-61
2023/08/28 00:35:34;;;;;;;2.13;1.33;;;;;;;16.16;60.71;100748.44;4969609;28;97265;-63
2023/08/28 00:37:59;;;;;;;1.40;1.20;;;;;;;16.15;60.80;100746.94;4966493;28;98896;-61
2023/08/28 00:40:24;;;;;;;1.27;1.23;;;;;;;16.10;60.69;100733.13;4965629;28;98152;-61
2023/08/28 00:42:50;;;;;;;1.63;1.53;;;;;;;16.11;60.83;100734.66;4969945;28;104699;-61
2023/08/28 00:45:15;;;;;;;1.17;1.17;;;;;;;16.11;60.94;100738.19;4971150;28;97080;-60
2023/08/28 00:47:43;;;;;;;1.53;1.40;;;;;;;16.11;60.90;100734.66;4968229;28;97341;-62
2023/08/28 00:50:09;;;;;;;1.30;1.30;;;;;;;16.11;61.01;100729.84;4969092;28;97118;-62
2023/08/28 00:52:35;;;;;;;1.50;1.40;;;;;;;16.12;61.04;100730.59;4968139;28;96835;-62
2023/08/28 00:55:00;;;;;;;1.70;1.60;;;;;;;16.14;61.11;100731.56;4968598;28;97176;-61
2023/08/28 00:57:25;;;;;;;1.50;1.40;;;;;;;16.16;61.10;100736.59;4968064;28;96682;-60
2023/08/28 00:59:51;;;;;;;1.27;1.27;;;;;;;16.18;61.18;100737.56;4969777;28;97064;-62
2023/08/28 01:02:16;;;;;;;1.60;1.50;;;;;;;16.18;60.93;100739.59;4965953;28;97452;-60
2023/08/28 01:04:42;;;;;;;2.20;1.53;;;;;;;16.13;61.00;100745.97;4964681;28;105748;-62
2023/08/28 01:07:21;;;;;;;2.50;1.60;;;;;;;16.12;61.62;100759.09;4966006;28;97491;-61
2023/08/28 01:10:12;;;;;;;1.57;1.47;;;;;;;16.10;61.87;100772.75;4961941;28;97206;-61
2023/08/28 01:12:53;;;;;;;1.30;1.20;;;;;;;16.11;61.80;100770.72;4964982;28;97938;-62
2023/08/28 01:15:24;;;;;;;1.30;1.30;;;;;;;16.12;61.39;100772.25;4965815;28;97234;-61
2023/08/28 01:18:01;;;;;;;1.27;1.27;;;;;;;16.12;61.31;100763.91;4968518;28;97085;-60
2023/08/28 01:20:31;;;;;;;1.70;1.60;;;;;;;16.10;61.25;100761.66;4965422;28;97125;-61
2023/08/28 01:22:57;;;;;;;1.73;1.57;;;;;;;16.06;61.25;100761.22;4966797;28;97357;-62
2023/08/28 01:25:24;;;;;;;1.60;1.53;;;;;;;16.03;61.43;100762.25;4963277;28;99276;-62
2023/08/28 01:27:51;;;;;;;1.57;1.43;;;;;;;16.03;61.40;100751.16;4966940;28;97288;-60
2023/08/28 01:30:17;;;;;;;1.83;1.70;;;;;;;16.03;61.42;100761.53;4969348;28;97184;-61
2023/08/28 01:32:44;;;;;;;2.47;1.73;;;;;;;16.02;61.30;100765.56;4969669;28;97421;-62
2023/08/28 01:35:20;;;;;;;1.87;1.77;;;;;;;16.00;61.55;100774.44;4967616;28;97249;-61
2023/08/28 01:38:04;;;;;;;1.40;1.30;;;;;;;15.96;61.81;100781.56;4965292;28;96953;-61
2023/08/28 01:40:38;;;;;;;1.37;1.33;;;;;;;15.97;61.36;100783.78;4966301;28;96695;-62
2023/08/28 01:43:08;;;;;;;1.67;1.57;;;;;;;15.94;61.44;100793.19;4969714;28;98016;-61
2023/08/28 01:45:37;;;;;;;2.17;2.07;;;;;;;15.90;61.32;100778.13;4966077;28;97118;-62
2023/08/28 01:48:03;;;;;;;1.50;1.40;;;;;;;15.86;61.19;100781.16;4964530;28;97467;-61
2023/08/28 01:50:28;;;;;;;2.40;1.77;;;;;;;15.83;61.33;100778.72;4961052;28;97295;-62
2023/08/28 01:52:53;;;;;;;2.10;2.00;;;;;;;15.81;61.45;100782.03;4963472;28;106748;-62
2023/08/28 01:55:44;;;;;;;1.90;1.80;;;;;;;15.84;61.60;100791.28;4967084;28;96671;-61
2023/08/28 01:58:10;;;;;;;1.80;1.70;;;;;;;15.81;61.34;100790.34;4963968;28;97263;-61
2023/08/28 02:00:36;;;;;;;1.70;1.60;;;;;;;15.81;61.40;100784.78;4970377;28;96853;-60
2023/08/28 02:03:01;;;;;;;2.33;1.80;;;;;;;15.83;61.40;100782.25;4965204;28;97150;-61
2023/08/28 02:05:26;;;;;;;1.60;1.50;;;;;;;15.83;61.40;100778.72;4966210;28;108888;-65
2023/08/28 02:07:52;;;;;;;1.90;1.80;;;;;;;15.82;61.47;100779.97;4965557;28;97270;-64
2023/08/28 02:10:17;;;;;;;1.63;1.53;;;;;;;15.80;61.50;100769.41;4967525;28;97031;-61
2023/08/28 02:12:42;;;;;;;1.70;1.60;;;;;;;15.80;61.38;100780.50;4968010;28;97234;-64
2023/08/28 02:15:08;;;;;;;1.53;1.43;;;;;;;15.80;61.50;100774.97;4964377;28;97142;-66
2023/08/28 02:17:33;;;;;;;1.70;1.60;;;;;;;15.78;61.40;100766.41;4968396;28;96615;-62
2023/08/28 02:19:59;;;;;;;2.03;1.93;;;;;;;15.79;61.66;100765.16;4970922;28;97212;-62
2023/08/28 02:22:24;;;;;;;1.57;1.47;;;;;;;15.80;61.76;100765.88;4963936;28;113809;-63
2023/08/28 02:24:49;;;;;;;2.60;2.30;;;;;;;15.83;61.75;100773.16;4963332;28;109797;-63
2023/08/28 02:27:15;;;;;;;2.20;2.10;;;;;;;15.87;61.93;100774.34;4963372;28;97234;-60
2023/08/28 02:29:40;;;;;;;2.93;2.63;;;;;;;15.92;62.03;100770.00;4964364;28;97046;-61
2023/08/28 02:32:05;;;;;;;2.40;2.30;;;;;;;15.96;61.99;100779.53;4965373;28;108007;-61
2023/08/28 02:34:31;;;;;;;3.80;2.83;;;;;;;15.99;62.02;100781.25;4965905;28;97558;-64
2023/08/28 02:36:56;;;;;;;2.43;2.33;;;;;;;16.05;62.13;100786.72;4967792;28;97096;-61
2023/08/28 02:39:21;;;;;;;3.13;2.87;;;;;;;16.07;62.17;100787.69;4966815;28;97709;-63
2023/08/28 02:41:47;;;;;;;2.30;2.20;;;;;;;16.09;62.08;100793.47;4971914;28;97659;-63
2023/08/28 02:44:12;;;;;;;10.73;2.70;;;;;;;16.11;62.14;100804.78;4969035;28;96618;-63
2023/08/28 02:46:37;;;;;;;2.17;2.07;;;;;;;16.11;62.07;100801.25;4968194;28;97193;-63
2023/08/28 02:49:03;;;;;;;2.60;2.50;;;;;;;16.12;62.07;100806.28;4965641;28;97811;-63
2023/08/28 02:51:28;;;;;;;2.47;2.37;;;;;;;16.10;62.11;100803.28;4964727;28;97297;-64
2023/08/28 02:53:54;;;;;;;2.47;2.37;;;;;;;16.10;62.04;100808.84;4969710;28;97138;-62
2023/08/28 02:56:24;;;;;;;2.40;2.30;;;;;;;16.10;62.25;100802.53;4961556;28;96783;-63
2023/08/28 02:58:51;;;;;;;3.30;3.10;;;;;;;16.08;62.20;100814.16;4963073;28;97246;-61
2023/08/28 03:01:17;;;;;;;2.47;2.37;;;;;;;16.10;62.28;100814.38;4965808;28;97732;-61
2023/08/28 03:03:43;;;;;;;2.63;2.53;;;;;;;16.11;62.16;100813.13;4966528;28;97398;-63
2023/08/28 03:06:08;;;;;;;3.23;2.93;;;;;;;16.12;62.34;100819.44;4966727;28;97063;-63
2023/08/28 03:08:33;;;;;;;4.10;2.87;;;;;;;16.11;62.39;100824.22;4966674;28;97149;-62
2023/08/28 03:10:59;;;;;;;2.63;2.53;;;;;;;16.13;62.24;100812.59;4968730;28;97118;-63
2023/08/28 03:13:24;;;;;;;2.80;2.70;;;;;;;16.12;62.21;100814.59;4966003;28;100668;-60
2023/08/28 03:15:49;;;;;;;3.37;2.67;;;;;;;16.09;62.19;100840.66;4968643;28;97123;-62
2023/08/28 03:18:15;;;;;;;2.53;2.40;;;;;;;16.06;62.13;100813.19;4964390;28;97264;-63
2023/08/28 03:20:41;;;;;;;1.97;1.87;;;;;;;16.03;62.21;100805.94;4960790;28;97209;-61
2023/08/28 03:23:09;;;;;;;3.03;2.53;;;;;;;16.02;62.27;100807.19;4964564;28;97176;-61
2023/08/28 03:25:35;;;;;;;2.63;2.50;;;;;;;15.99;62.38;100806.22;4965829;28;96964;-61
2023/08/28 03:28:01;;;;;;;3.07;2.87;;;;;;;16.00;62.46;100793.09;4974008;28;97186;-64
2023/08/28 03:30:27;;;;;;;3.50;3.20;;;;;;;16.00;62.45;100782.75;4971151;28;97055;-61
2023/08/28 03:32:52;;;;;;;3.27;2.63;;;;;;;16.02;62.51;100787.75;4969450;28;97171;-64
2023/08/28 03:35:18;;;;;;;4.13;3.53;;;;;;;16.02;62.58;100799.63;4970686;28;97321;-61
2023/08/28 03:37:44;;;;;;;4.20;3.90;;;;;;;16.03;62.64;100812.22;4962995;28;97089;-61
2023/08/28 03:40:10;;;;;;;4.07;3.77;;;;;;;16.09;62.63;100828.78;4963902;28;96883;-61
2023/08/28 03:42:35;;;;;;;3.40;3.20;;;;;;;16.10;62.74;100825.50;4971406;28;96853;-63
2023/08/28 03:45:00;;;;;;;3.97;3.63;;;;;;;16.12;62.73;100836.09;4968787;28;97030;-61
2023/08/28 03:47:26;;;;;;;4.27;3.90;;;;;;;16.13;62.52;100835.53;4963949;28;97269;-62
2023/08/28 03:49:51;;;;;;;5.80;4.20;;;;;;;16.14;62.73;100822.41;4964373;28;98573;-61
2023/08/28 03:52:16;;;;;;;4.33;3.93;;;;;;;16.15;62.67;100824.66;4964474;28;96839;-61
2023/08/28 03:54:42;;;;;;;6.60;4.00;;;;;;;16.12;62.78;100814.59;4969155;28;97149;-60
2023/08/28 03:57:07;;;;;;;5.13;4.70;;;;;;;16.16;62.69;100823.38;4968466;28;97034;-60
2023/08/28 03:59:33;;;;;;;4.50;4.10;;;;;;;16.16;62.76;100822.66;4967960;28;98071;-62
2023/08/28 04:02:03;;;;;;;5.87;4.30;;;;;;;16.18;62.71;100828.41;4970933;28;97220;-60
2023/08/28 04:04:28;;;;;;;4.60;4.20;;;;;;;16.17;62.79;100822.09;4965471;28;96964;-61
2023/08/28 04:06:57;;;;;;;5.50;5.00;;;;;;;16.19;62.73;100824.34;4964205;28;97282;-62
2023/08/28 04:09:22;;;;;;;4.17;3.87;;;;;;;16.20;62.72;100820.31;4969728;28;97494;-62
2023/08/28 04:11:47;;;;;;;4.60;4.20;;;;;;;16.19;62.66;100804.91;4966100;28;109830;-60
2023/08/28 04:14:12;;;;;;;4.77;4.37;;;;;;;16.18;62.66;100806.97;4970590;28;104329;-60
2023/08/28 04:16:38;;;;;;;5.00;4.50;;;;;;;16.17;62.64;100808.22;4972180;28;97171;-62
2023/08/28 04:19:04;;;;;;;5.00;4.60;;;;;;;16.18;62.73;100814.53;4970258;28;97735;-61
2023/08/28 04:21:29;;;;;;;4.33;3.90;;;;;;;16.17;62.56;100811.00;4968775;28;96997;-61
2023/08/28 04:23:54;;;;;;;5.10;4.60;;;;;;;16.17;62.48;100799.16;4967960;28;97984;-63
2023/08/28 04:26:20;;;;;;;4.43;4.03;;;;;;;16.11;62.51;100788.13;4968357;28;97182;-62
2023/08/28 04:28:45;;;;;;;4.60;4.30;;;;;;;16.11;62.54;100790.91;4965606;28;100065;-61
2023/08/28 04:31:12;;;;;;;5.37;4.93;;;;;;;16.10;62.58;100794.19;4966133;28;96697;-62
2023/08/28 04:33:37;;;;;;;4.47;4.13;;;;;;;16.11;62.54;100793.69;4966581;28;97168;-61
2023/08/28 04:36:03;;;;;;;4.83;4.43;;;;;;;16.09;62.55;100796.25;4971014;28;97314;-61
2023/08/28 04:38:28;;;;;;;6.10;5.60;;;;;;;16.09;62.55;100793.47;4966659;28;97346;-62
2023/08/28 04:40:54;;;;;;;6.50;5.20;;;;;;;16.10;62.63;100788.66;4967501;28;97599;-62
2023/08/28 04:43:19;;;;;;;4.30;4.00;;;;;;;16.09;62.63;100792.72;4964063;28;97109;-61
2023/08/28 04:45:44;;;;;;;4.43;4.03;;;;;;;16.08;62.60;100791.19;4965202;28;97231;-61
2023/08/28 04:48:10;;;;;;;4.53;4.13;;;;;;;16.05;62.52;100793.03;4969751;28;98108;-63
2023/08/28 04:50:35;;;;;;;5.07;4.67;;;;;;;16.05;62.57;100786.72;4968181;28;97208;-62
2023/08/28 04:53:01;;;;;;;9.37;5.10;;;;;;;16.05;62.59;100781.94;4971614;28;96817;-59
2023/08/28 04:55:26;;;;;;;5.80;5.33;;;;;;;16.04;62.55;100777.63;4965849;28;97119;-61
2023/08/28 04:57:52;;;;;;;5.10;4.70;;;;;;;16.05;62.68;100781.16;4966923;28;97399;-61
2023/08/28 05:00:17;;;;;;;4.43;4.13;;;;;;;16.05;62.65;100775.63;4970827;28;97706;-60
2023/08/28 05:02:43;;;;;;;5.57;5.07;;;;;;;16.03;62.62;100778.91;4972204;28;97348;-62
2023/08/28 05:05:08;;;;;;;5.47;5.00;;;;;;;16.04;62.54;100774.88;4972882;28;96814;-61
2023/08/28 05:07:33;;;;;;;5.00;4.60;;;;;;;16.03;62.42;100770.56;4969989;28;107705;-63
2023/08/28 05:09:58;;;;;;;4.77;4.37;;;;;;;16.04;62.52;100768.56;4969209;28;97585;-62
2023/08/28 05:12:24;;;;;;;5.00;4.60;;;;;;;16.03;62.58;100772.63;4970930;28;97094;-60
2023/08/28 05:14:49;;;;;;;5.00;4.60;;;;;;;16.03;62.61;100773.34;4967586;28;96924;-62
2023/08/28 05:17:14;;;;;;;5.40;4.23;;;;;;;16.03;62.61;100767.81;4965080;28;97307;-59
2023/08/28 05:19:40;;;;;;;5.03;4.60;;;;;;;16.03;62.66;100772.63;4967192;28;99416;-59
2023/08/28 05:22:05;;;;;;;5.00;4.60;;;;;;;16.04;62.52;100768.56;4968848;28;97037;-62
2023/08/28 05:24:30;;;;;;;4.77;4.30;;;;;;;16.04;62.48;100763.00;4968648;28;97659;-61
2023/08/28 05:26:56;;;;;;;5.17;4.70;;;;;;;16.03;62.48;100767.06;4971005;28;96852;-61
2023/08/28 05:29:21;;;;;;;5.37;4.97;;;;;;;16.03;62.50;100776.13;4967834;28;100400;-60
2023/08/28 05:31:47;;;;;;;4.67;4.27;;;;;;;16.02;62.56;100780.19;4969034;28;97084;-62
2023/08/28 05:34:12;;;;;;;9.43;4.40;;;;;;;16.04;62.71;100780.41;4967055;28;97294;-62
2023/08/28 05:36:37;;;;;;;5.83;5.23;;;;;;;16.07;62.66;100784.91;4967852;28;109838;-60
2023/08/28 05:39:03;;;;;;;5.80;5.27;;;;;;;16.09;62.90;100789.94;4968362;28;102058;-61
2023/08/28 05:41:28;;;;;;;5.33;4.83;;;;;;;16.13;62.56;100804.25;4968170;28;97045;-62
2023/08/28 05:43:53;;;;;;;5.53;5.03;;;;;;;16.12;62.94;100806.28;4968304;28;97042;-60
2023/08/28 05:46:19;;;;;;;7.63;5.73;;;;;;;16.18;62.90;100808.97;4968261;28;97435;-60
2023/08/28 05:48:44;;;;;;;6.10;5.53;;;;;;;16.18;63.00;100804.19;4967486;28;98498;-61
2023/08/28 05:51:09;;;;;;;5.30;4.80;;;;;;;16.22;63.07;100812.97;4970283;28;96848;-61
2023/08/28 05:53:35;;;;;;;6.07;5.47;;;;;;;16.25;62.98;100811.88;4966462;28;97524;-61
2023/08/28 05:56:00;;;;;;;5.57;5.07;;;;;;;16.29;62.97;100826.22;4965630;28;105949;-63
2023/08/28 05:58:26;;;;;;;5.50;5.03;;;;;;;16.31;63.07;100823.69;4965268;28;97703;-60
2023/08/28 06:00:51;;;;;;;5.30;4.90;;;;;;;16.36;63.01;100824.84;4968681;28;97026;-61
2023/08/28 06:03:17;;;;;;;5.20;4.80;;;;;;;16.38;63.65;100831.38;4967303;28;97135;-60
2023/08/28 06:05:43;;;;;;;5.37;4.87;;;;;;;16.42;63.17;100831.81;4969012;28;97168;-59
2023/08/28 06:08:08;;;;;;;5.13;4.73;;;;;;;16.46;63.21;100826.72;4968695;28;100140;-60
2023/08/28 06:10:38;;;;;;;5.30;4.57;;;;;;;16.51;63.29;100839.06;4969600;28;97090;-61
2023/08/28 06:13:04;;;;;;;5.47;4.80;;;;;;;16.56;63.19;100845.78;4966959;28;96852;-62
2023/08/28 06:15:29;;;;;;;5.00;4.60;;;;;;;16.60;63.28;100858.09;4966617;28;97332;-60
2023/08/28 06:17:55;;;;;;;5.73;5.20;;;;;;;16.66;63.28;100858.00;4965005;28;104550;-60
2023/08/28 06:20:22;;;;;;;5.47;5.07;;;;;;;16.67;63.31;100860.25;4970065;28;98400;-62
2023/08/28 06:22:47;;;;;;;5.63;5.13;;;;;;;16.69;63.35;100859.72;4966478;28;97667;-61
2023/08/28 06:25:12;;;;;;;4.90;4.50;;;;;;;16.70;63.45;100858.44;4965214;28;97196;-60
2023/08/28 06:27:38;;;;;;;5.43;5.03;;;;;;;16.76;63.62;100865.41;4967663;28;104826;-60
2023/08/28 06:30:04;;;;;;;4.93;4.53;;;;;;;16.80;63.54;100870.66;4964738;28;96978;-61
2023/08/28 06:32:29;;;;;;;5.73;5.30;;;;;;;16.81;63.50;100872.16;4970074;28;97029;-61
2023/08/28 06:34:55;;;;;;;5.80;5.30;;;;;;;16.82;63.60;100868.84;4964135;28;96886;-62
2023/08/28 06:37:20;;;;;;;5.30;4.80;;;;;;;16.87;63.66;100865.22;4963842;28;97256;-62
2023/08/28 06:39:45;;;;;;;5.57;5.10;;;;;;;16.92;63.78;100866.41;4966410;28;97030;-61
2023/08/28 06:42:11;;;;;;;6.30;4.97;;;;;;;16.94;63.85;100863.84;4965610;28;97181;-60
2023/08/28 06:44:37;;;;;;;9.17;5.47;;;;;;;16.96;63.84;100869.63;4967082;28;98947;-60
2023/08/28 06:47:02;;;;;;;5.20;4.80;;;;;;;16.98;63.94;100878.19;4968150;28;97190;-60
2023/08/28 06:49:28;;;;;;;8.20;4.77;;;;;;;17.03;63.95;100871.78;4967573;28;97163;-60
2023/08/28 06:51:53;;;;;;;5.10;4.70;;;;;;;17.11;63.95;100873.41;4969405;28;96859;-62
2023/08/28 06:54:18;;;;;;;4.37;4.00;;;;;;;17.17;63.88;100871.28;4970419;28;96999;-59
2023/08/28 06:56:44;;;;;;;6.37;5.00;;;;;;;17.24;63.77;100873.41;4963401;28;103815;-62
2023/08/28 06:59:09;;;;;;;5.03;4.63;;;;;;;17.31;63.85;100877.59;4966445;28;96938;-61
2023/08/28 07:01:34;;;;;;;4.90;4.47;;;;;;;17.38;63.79;100882.53;4966610;28;97178;-61
2023/08/28 07:03:59;;;;;;;3.80;3.53;;;;;;;17.43;63.69;100876.09;4971260;28;103732;-60
2023/08/28 07:06:25;;;;;;;8.63;4.50;;;;;;;17.48;63.75;100869.69;4968624;28;97546;-59
2023/08/28 07:08:50;;;;;;;5.23;4.67;;;;;;;17.54;63.77;100872.41;4966839;28;96774;-61
2023/08/28 07:11:15;;;;;;;4.03;3.67;;;;;;;17.56;63.80;100878.91;4963245;28;96959;-60
2023/08/28 07:13:41;;;;;;;5.17;4.67;;;;;;;17.61;63.93;100880.84;4965115;28;106596;-59
2023/08/28 07:16:06;;;;;;;4.33;3.93;;;;;;;17.67;63.77;100878.69;4970689;28;97079;-62
2023/08/28 07:18:31;;;;;;;4.03;3.63;;;;;;;17.73;63.84;100873.78;4963033;28;97278;-60
2023/08/28 07:20:57;;;;;;;4.20;3.80;;;;;;;17.80;63.68;100889.81;4966089;28;96921;-61
2023/08/28 07:23:24;;;;;;;4.30;3.90;;;;;;;17.85;63.73;100890.97;4966026;28;97444;-59
2023/08/28 07:25:50;;;;;;;4.43;4.03;;;;;;;17.90;63.73;100890.88;4966723;28;97721;-60
2023/08/28 07:28:15;;;;;;;5.60;3.43;;;;;;;17.95;63.67;100887.22;4969530;28;97316;-60
2023/08/28 07:30:42;;;;;;;5.30;4.07;;;;;;;18.03;63.47;100897.72;4965493;28;97387;-59
2023/08/28 07:33:07;;;;;;;3.70;3.40;;;;;;;18.08;63.68;100894.06;4965248;28;97285;-60
2023/08/28 07:35:36;;;;;;;8.20;3.70;;;;;;;18.12;63.65;100895.25;4968297;28;97180;-60
2023/08/28 07:38:05;;;;;;;3.50;2.80;;;;;;;18.16;63.46;100892.09;4968778;28;97021;-61
2023/08/28 07:40:32;;;;;;;3.80;2.83;;;;;;;18.21;63.49;100903.16;4965942;28;96987;-63
2023/08/28 07:42:58;;;;;;;3.73;2.50;;;;;;;18.28;63.54;100896.16;4965020;28;97262;-59
2023/08/28 07:45:24;;;;;;;3.50;2.87;;;;;;;18.36;63.59;100902.56;4969549;28;97182;-63
2023/08/28 07:47:50;;;;;;;2.87;2.53;;;;;;;18.44;63.44;100897.81;4963776;28;97254;-62
2023/08/28 07:50:15;;;;;;;4.77;2.57;;;;;;;18.50;63.36;100885.28;4966239;28;97346;-63
2023/08/28 07:52:41;;;;;;;2.67;2.47;;;;;;;18.59;63.03;100898.00;4968058;28;98983;-59
2023/08/28 07:55:06;;;;;;;3.47;2.63;;;;;;;18.67;63.32;100898.84;4967442;28;97163;-62
2023/08/28 07:57:33;;;;;;;2.60;2.40;;;;;;;18.78;63.39;100895.78;4965827;28;97226;-60
2023/08/28 07:59:58;;;;;;;2.73;2.53;;;;;;;18.82;63.08;100898.22;4963757;28;97237;-62
2023/08/28 08:02:24;;;;;;;2.67;2.37;;;;;;;18.89;63.06;100886.41;4963045;28;97420;-62
2023/08/28 08:04:50;;;;;;;3.00;2.60;;;;;;;18.96;62.96;100885.72;4961518;28;97034;-61
2023/08/28 08:07:15;;;;;;;2.20;2.10;;;;;;;19.09;62.97;100886.38;4967542;28;96974;-61
2023/08/28 08:09:40;;;;;;;4.90;3.13;;;;;;;19.19;62.82;100886.63;4969039;28;97216;-60
2023/08/28 08:12:06;;;;;;;2.80;2.20;;;;;;;19.28;62.74;100875.75;4965430;28;97777;-61
2023/08/28 08:14:31;;;;;;;2.03;1.83;;;;;;;19.37;62.52;100878.03;4968152;28;96810;-62
2023/08/28 08:16:56;;;;;;;1.87;1.67;;;;;;;19.47;62.54;100867.13;4966838;28;97078;-60
2023/08/28 08:19:22;;;;;;;1.80;1.70;;;;;;;19.48;62.61;100868.66;4966169;28;96883;-62
2023/08/28 08:21:47;;;;;;;1.90;1.67;;;;;;;19.57;62.83;100867.41;4967720;28;97299;-61
2023/08/28 08:24:12;;;;;;;2.23;1.47;;;;;;;19.66;62.71;100872.47;4968206;28;97337;-61
2023/08/28 08:26:38;;;;;;;1.90;1.80;;;;;;;19.70;62.48;100865.22;4967544;28;97044;-64
2023/08/28 08:29:03;;;;;;;1.97;1.87;;;;;;;19.74;62.28;100862.06;4967040;28;96997;-61
2023/08/28 08:31:28;;;;;;;2.13;1.70;;;;;;;19.80;62.04;100862.66;4970436;28;96559;-61
2023/08/28 08:33:54;;;;;;;1.77;1.50;;;;;;;19.87;62.18;100864.75;4969123;28;101240;-62
2023/08/28 08:36:19;;;;;;;2.50;1.60;;;;;;;19.93;61.69;100856.94;4961269;28;97163;-63
2023/08/28 08:38:44;;;;;;;1.80;1.70;;;;;;;20.01;61.68;100863.28;4964899;28;97041;-61
2023/08/28 08:41:10;;;;;;;2.90;1.80;;;;;;;20.12;61.54;100869.31;4967927;28;97481;-62
2023/08/28 08:43:35;;;;;;;1.70;1.60;;;;;;;20.24;61.17;100880.94;4968973;28;97089;-63
2023/08/28 08:46:04;;;;;;;1.83;1.73;;;;;;;20.37;61.14;100872.38;4966442;28;96974;-65
2023/08/28 08:48:34;;;;;;;1.30;1.20;;;;;;;20.46;60.80;100873.91;4969919;28;96957;-63
2023/08/28 08:51:04;;;;;;;1.50;1.20;;;;;;;20.59;60.78;100871.69;4960749;28;96866;-62
2023/08/28 08:53:41;;;;;;;1.97;1.40;;;;;;;20.74;60.66;100879.34;4968257;28;97063;-63
2023/08/28 08:56:09;;;;;;;1.20;1.10;;;;;;;20.90;60.63;100878.78;4966530;28;96836;-63
2023/08/28 08:58:35;;;;;;;1.30;1.20;;;;;;;21.06;60.22;100878.81;4969745;28;96811;-61
2023/08/28 09:01:01;;;;;;;8.73;1.40;;;;;;;21.20;60.22;100871.72;4965285;28;97489;-63
2023/08/28 09:03:28;;;;;;;1.00;0.90;;;;;;;21.33;59.81;100879.91;4968566;28;97163;-62
2023/08/28 09:05:55;;;;;;;1.63;1.20;;;;;;;21.45;59.79;100883.81;4969267;28;97231;-64
2023/08/28 09:08:23;;;;;;;1.27;0.97;;;;;;;21.51;59.67;100884.38;4971234;28;97080;-64
2023/08/28 09:10:48;;;;;;;1.70;1.00;;;;;;;21.58;59.41;100889.19;4972497;28;97636;-63
2023/08/28 09:13:14;;;;;;;0.90;0.80;;;;;;;21.71;59.17;100886.16;4967175;28;97608;-65
2023/08/28 09:15:39;;;;;;;0.80;0.73;;;;;;;21.81;59.04;100877.94;4969547;28;97083;-65
2023/08/28 09:18:05;;;;;;;1.03;0.90;;;;;;;21.93;58.61;100879.78;4967176;28;96937;-61
2023/08/28 09:20:31;;;;;;;0.90;0.80;;;;;;;22.06;58.18;100878.81;4965737;28;97541;-63
2023/08/28 09:22:56;;;;;;;2.10;0.70;;;;;;;21.98;58.12;100880.88;4967036;28;97117;-66
2023/08/28 09:25:22;;;;;;;1.37;0.87;;;;;;;21.99;58.07;100880.31;4969330;28;97060;-64
2023/08/28 09:27:51;;;;;;;1.10;0.53;;;;;;;22.08;57.98;100874.09;4970439;28;97161;-64
2023/08/28 09:30:29;;;;;;;0.70;0.50;;;;;;;22.25;57.31;100879.81;4967212;28;97061;-62
2023/08/28 09:32:57;;;;;;;0.77;0.67;;;;;;;22.34;57.42;100879.19;4971537;28;97631;-60
2023/08/28 09:35:22;;;;;;;1.43;0.80;;;;;;;22.48;57.41;100876.13;4965702;28;96791;-62
2023/08/28 09:37:58;;;;;;;1.00;0.90;;;;;;;22.59;56.22;100886.91;4970363;28;96971;-63
2023/08/28 09:40:33;;;;;;;0.87;0.63;;;;;;;22.60;56.24;100882.81;4968462;28;99126;-63
2023/08/28 09:42:59;;;;;;;0.70;0.63;;;;;;;22.62;56.59;100886.53;4968760;28;96725;-63
2023/08/28 09:45:34;;;;;;;2.53;0.90;;;;;;;22.57;55.89;100893.09;4969486;28;96669;-61
2023/08/28 09:48:04;;;;;;;1.87;0.70;;;;;;;22.54;56.40;100896.28;4972542;28;97063;-62
2023/08/28 09:50:32;;;;;;;1.10;0.70;;;;;;;22.51;56.80;100891.81;4958458;28;98598;-64
2023/08/28 09:53:12;;;;;;;2.20;0.77;;;;;;;22.47;56.50;100906.25;4965480;28;97166;-64
2023/08/28 09:55:39;;;;;;;1.13;0.63;;;;;;;22.53;56.69;100906.75;4973611;28;97061;-63
2023/08/28 09:58:11;;;;;;;1.20;0.70;;;;;;;22.54;56.09;100887.88;4966394;28;97134;-64
2023/08/28 10:00:39;;;;;;;0.70;0.67;;;;;;;22.48;56.05;100904.91;4965769;28;97435;-65
2023/08/28 10:03:09;;;;;;;1.13;0.90;;;;;;;22.47;56.19;100902.69;4964112;28;97236;-65
2023/08/28 10:05:42;;;;;;;1.40;0.77;;;;;;;22.43;55.69;100907.94;4966201;28;96732;-63
2023/08/28 10:08:09;;;;;;;1.00;0.60;;;;;;;22.38;55.97;100902.00;4966229;28;97483;-64
2023/08/28 10:10:38;;;;;;;0.70;0.50;;;;;;;22.35;55.68;100896.75;4965650;28;97224;-63
2023/08/28 10:13:05;;;;;;;1.10;0.70;;;;;;;22.36;55.89;100887.81;4966405;28;97560;-63
2023/08/28 10:15:40;;;;;;;0.60;0.50;;;;;;;22.42;55.48;100884.03;4964301;28;96810;-63
2023/08/28 10:18:12;;;;;;;1.10;0.60;;;;;;;22.41;55.44;100877.66;4967396;28;97014;-63
2023/08/28 10:20:39;;;;;;;0.87;0.63;;;;;;;22.45;55.67;100880.84;4967876;28;97032;-64
2023/08/28 10:23:06;;;;;;;1.33;0.90;;;;;;;22.54;55.66;100873.88;4967405;28;96698;-65
2023/08/28 10:25:33;;;;;;;0.67;0.60;;;;;;;22.59;55.48;100870.06;4964694;28;97317;-63
2023/08/28 10:27:59;;;;;;;0.97;0.60;;;;;;;22.64;55.14;100878.31;4964892;28;96790;-63
2023/08/28 10:30:26;;;;;;;0.80;0.60;;;;;;;22.64;55.03;100891.56;4963130;28;99189;-64
2023/08/28 10:32:54;;;;;;;1.20;0.60;;;;;;;22.63;55.11;100882.41;4966278;28;96977;-66
2023/08/28 10:35:19;;;;;;;0.80;0.60;;;;;;;22.67;55.09;100898.84;4961594;28;97014;-65
2023/08/28 10:37:46;;;;;;;1.93;0.90;;;;;;;22.75;54.88;100885.50;4965952;28;96826;-64
2023/08/28 10:40:12;;;;;;;1.63;0.50;;;;;;;22.82;54.95;100882.66;4963831;28;99626;-64
2023/08/28 10:42:39;;;;;;;1.07;0.60;;;;;;;22.84;55.02;100880.03;4966111;28;97189;-64
2023/08/28 10:45:05;;;;;;;1.10;0.70;;;;;;;22.72;54.82;100875.44;4965421;28;97443;-63
2023/08/28 10:47:30;;;;;;;0.90;0.50;;;;;;;22.66;54.46;100886.88;4965951;28;97175;-63
2023/08/28 10:49:56;;;;;;;3.90;0.77;;;;;;;22.71;54.54;100873.94;4968390;28;97163;-63
2023/08/28 10:52:22;;;;;;;0.70;0.50;;;;;;;22.78;54.75;100876.69;4968596;28;98809;-63
2023/08/28 10:54:47;;;;;;;0.80;0.50;;;;;;;22.83;54.70;100872.16;4965477;28;97163;-62
2023/08/28 10:57:30;;;;;;;0.80;0.60;;;;;;;22.85;53.96;100869.53;4966316;28;96728;-65
2023/08/28 11:00:02;;;;;;;1.10;0.70;;;;;;;22.89;54.37;100867.09;4967450;28;97407;-63
2023/08/28 11:03:06;;;;;;;1.00;0.40;;;;;;;22.95;54.15;100859.94;4967400;28;96777;-63
2023/08/28 11:05:33;;;;;;;0.70;0.50;;;;;;;23.03;54.57;100854.97;4965479;28;97852;-64
2023/08/28 11:08:03;;;;;;;1.37;0.70;;;;;;;23.13;54.00;100854.34;4961379;28;97337;-63
2023/08/28 11:10:29;;;;;;;0.60;0.40;;;;;;;23.24;53.68;100854.59;4968640;28;97198;-63
2023/08/28 11:13:00;;;;;;;0.70;0.60;;;;;;;23.36;53.05;100869.66;4964225;28;97354;-63
2023/08/28 11:15:27;;;;;;;0.97;0.60;;;;;;;23.43;53.47;100863.25;4960654;28;97240;-63
2023/08/28 11:18:28;;;;;;;0.90;0.60;;;;;;;23.54;52.35;100865.56;4967862;28;97082;-63
2023/08/28 11:20:58;;;;;;;0.70;0.57;;;;;;;23.68;52.68;100858.25;4967177;28;98335;-65
2023/08/28 11:23:36;;;;;;;0.97;0.60;;;;;;;23.81;52.82;100863.53;4968159;28;97519;-64